sensor_id;sensor_type;location;lat;lon;timestamp;P1;durP1;ratioP1;P2;durP2;ratioP2
14754;SDS011;7469;50.906;6.952;2023-02-28T00:01:07;1.93;;;1.67;;
14754;SDS011;7469;50.906;6.952;2023-02-28T00:03:35;2.23;;;1.40;;
14754;SDS011;7469;50.906;6.952;2023-02-28T00:06:05;2.63;;;1.40;;
14754;SDS011;7469;50.906;6.952;2023-02-28T00:08:33;2.03;;;1.43;;
14754;SDS011;7469;50.906;6.952;2023-02-28T00:11:01;3.73;;;1.70;;
14754;SDS011;7469;50.906;6.952;2023-02-28T00:13:30;1.50;;;1.40;;
14754;SDS011;7469;50.906;6.952;2023-02-28T00:15:59;6.53;;;1.73;;
14754;SDS011;7469;50.906;6.952;2023-02-28T00:18:28;2.73;;;1.63;;
14754;SDS011;7469;50.906;6.952;2023-02-28T00:20:56;3.40;;;1.73;;
14754;SDS011;7469;50.906;6.952;2023-02-28T00:23:26;3.87;;;1.73;;
14754;SDS011;7469;50.906;6.952;2023-02-28T00:25:55;4.30;;;1.90;;
14754;SDS011;7469;50.906;6.952;2023-02-28T00:28:23;3.67;;;1.67;;
14754;SDS011;7469;50.906;6.952;2023-02-28T00:30:51;2.63;;;1.57;;
14754;SDS011;7469;50.906;6.952;2023-02-28T00:33:20;2.10;;;1.90;;
14754;SDS011;7469;50.906;6.952;2023-02-28T00:35:47;2.63;;;1.77;;
14754;SDS011;7469;50.906;6.952;2023-02-28T00:38:16;3.77;;;1.77;;
14754;SDS011;7469;50.906;6.952;2023-02-28T00:40:45;2.70;;;1.80;;
14754;SDS011;7469;50.906;6.952;2023-02-28T00:43:13;2.27;;;1.80;;
14754;SDS011;7469;50.906;6.952;2023-02-28T00:45:41;2.20;;;1.70;;
14754;SDS011;7469;50.906;6.952;2023-02-28T00:48:09;2.60;;;1.70;;
14754;SDS011;7469;50.906;6.952;2023-02-28T00:50:37;3.50;;;1.57;;
14754;SDS011;7469;50.906;6.952;2023-02-28T00:53:05;4.87;;;1.93;;
14754;SDS011;7469;50.906;6.952;2023-02-28T00:55:32;2.70;;;1.57;;
14754;SDS011;7469;50.906;6.952;2023-02-28T00:58:02;3.43;;;1.63;;
14754;SDS011;7469;50.906;6.952;2023-02-28T01:00:30;2.83;;;1.60;;
14754;SDS011;7469;50.906;6.952;2023-02-28T01:02:58;3.13;;;1.67;;
14754;SDS011;7469;50.906;6.952;2023-02-28T01:05:25;2.83;;;1.63;;
14754;SDS011;7469;50.906;6.952;2023-02-28T01:07:54;2.03;;;1.30;;
14754;SDS011;7469;50.906;6.952;2023-02-28T01:10:22;3.10;;;1.60;;
14754;SDS011;7469;50.906;6.952;2023-02-28T01:12:50;2.13;;;1.60;;
14754;SDS011;7469;50.906;6.952;2023-02-28T01:15:19;3.23;;;1.80;;
14754;SDS011;7469;50.906;6.952;2023-02-28T01:17:47;2.67;;;1.70;;
14754;SDS011;7469;50.906;6.952;2023-02-28T01:20:15;3.03;;;1.70;;
14754;SDS011;7469;50.906;6.952;2023-02-28T01:22:43;6.00;;;1.83;;
14754;SDS011;7469;50.906;6.952;2023-02-28T01:25:11;2.67;;;1.70;;
14754;SDS011;7469;50.906;6.952;2023-02-28T01:27:39;2.20;;;1.50;;
14754;SDS011;7469;50.906;6.952;2023-02-28T01:30:08;5.50;;;1.50;;
14754;SDS011;7469;50.906;6.952;2023-02-28T01:32:38;1.90;;;1.60;;
14754;SDS011;7469;50.906;6.952;2023-02-28T01:35:06;2.90;;;1.60;;
14754;SDS011;7469;50.906;6.952;2023-02-28T01:37:34;3.33;;;1.60;;
14754;SDS011;7469;50.906;6.952;2023-02-28T01:40:02;2.90;;;1.50;;
14754;SDS011;7469;50.906;6.952;2023-02-28T01:42:31;1.93;;;1.60;;
14754;SDS011;7469;50.906;6.952;2023-02-28T01:45:01;3.37;;;1.87;;
14754;SDS011;7469;50.906;6.952;2023-02-28T01:47:34;3.60;;;1.60;;
14754;SDS011;7469;50.906;6.952;2023-02-28T01:50:07;2.43;;;1.73;;
14754;SDS011;7469;50.906;6.952;2023-02-28T01:52:40;1.80;;;1.50;;
14754;SDS011;7469;50.906;6.952;2023-02-28T01:55:09;2.37;;;1.57;;
14754;SDS011;7469;50.906;6.952;2023-02-28T01:57:40;3.17;;;1.70;;
14754;SDS011;7469;50.906;6.952;2023-02-28T02:00:13;3.17;;;1.80;;
14754;SDS011;7469;50.906;6.952;2023-02-28T02:02:45;1.53;;;1.30;;
14754;SDS011;7469;50.906;6.952;2023-02-28T02:05:16;4.35;;;1.63;;
14754;SDS011;7469;50.906;6.952;2023-02-28T02:07:47;2.53;;;1.67;;
14754;SDS011;7469;50.906;6.952;2023-02-28T02:10:18;1.73;;;1.50;;
14754;SDS011;7469;50.906;6.952;2023-02-28T02:12:55;1.97;;;1.40;;
14754;SDS011;7469;50.906;6.952;2023-02-28T02:15:34;2.07;;;1.63;;
14754;SDS011;7469;50.906;6.952;2023-02-28T02:18:09;1.63;;;1.30;;
14754;SDS011;7469;50.906;6.952;2023-02-28T02:20:58;6.00;;;1.70;;
14754;SDS011;7469;50.906;6.952;2023-02-28T02:23:53;3.57;;;1.50;;
14754;SDS011;7469;50.906;6.952;2023-02-28T02:26:50;2.75;;;1.27;;
14754;SDS011;7469;50.906;6.952;2023-02-28T02:29:31;1.60;;;1.48;;
14754;SDS011;7469;50.906;6.952;2023-02-28T02:35:34;4.05;;;1.58;;
14754;SDS011;7469;50.906;6.952;2023-02-28T02:38:11;1.63;;;1.48;;
14754;SDS011;7469;50.906;6.952;2023-02-28T02:40:47;2.70;;;1.40;;
14754;SDS011;7469;50.906;6.952;2023-02-28T02:43:22;1.48;;;1.27;;
14754;SDS011;7469;50.906;6.952;2023-02-28T02:45:56;6.27;;;1.80;;
14754;SDS011;7469;50.906;6.952;2023-02-28T02:48:27;2.53;;;1.50;;
14754;SDS011;7469;50.906;6.952;2023-02-28T02:51:02;1.40;;;1.20;;
14754;SDS011;7469;50.906;6.952;2023-02-28T02:53:40;4.60;;;1.63;;
14754;SDS011;7469;50.906;6.952;2023-02-28T02:56:11;2.28;;;1.75;;
14754;SDS011;7469;50.906;6.952;2023-02-28T02:58:41;3.43;;;1.27;;
14754;SDS011;7469;50.906;6.952;2023-02-28T03:01:14;2.17;;;1.67;;
14754;SDS011;7469;50.906;6.952;2023-02-28T03:03:55;4.85;;;1.70;;
14754;SDS011;7469;50.906;6.952;2023-02-28T03:06:25;3.55;;;1.52;;
14754;SDS011;7469;50.906;6.952;2023-02-28T03:08:54;1.45;;;1.35;;
14754;SDS011;7469;50.906;6.952;2023-02-28T03:11:22;3.03;;;1.25;;
14754;SDS011;7469;50.906;6.952;2023-02-28T03:17:08;1.35;;;1.25;;
14754;SDS011;7469;50.906;6.952;2023-02-28T03:19:51;3.60;;;1.38;;
14754;SDS011;7469;50.906;6.952;2023-02-28T03:22:42;2.65;;;1.63;;
14754;SDS011;7469;50.906;6.952;2023-02-28T03:25:20;2.53;;;1.52;;
14754;SDS011;7469;50.906;6.952;2023-02-28T03:27:57;3.20;;;1.40;;
14754;SDS011;7469;50.906;6.952;2023-02-28T03:30:33;2.03;;;1.30;;
14754;SDS011;7469;50.906;6.952;2023-02-28T03:33:06;1.20;;;1.15;;
14754;SDS011;7469;50.906;6.952;2023-02-28T03:35:39;3.20;;;1.65;;
14754;SDS011;7469;50.906;6.952;2023-02-28T03:38:12;1.77;;;1.53;;
14754;SDS011;7469;50.906;6.952;2023-02-28T03:40:46;3.22;;;1.55;;
14754;SDS011;7469;50.906;6.952;2023-02-28T03:43:18;1.50;;;1.40;;
14754;SDS011;7469;50.906;6.952;2023-02-28T03:45:50;2.97;;;1.67;;
14754;SDS011;7469;50.906;6.952;2023-02-28T03:48:22;1.60;;;1.30;;
14754;SDS011;7469;50.906;6.952;2023-02-28T03:50:53;1.88;;;1.50;;
14754;SDS011;7469;50.906;6.952;2023-02-28T03:53:27;1.55;;;0.93;;
14754;SDS011;7469;50.906;6.952;2023-02-28T03:55:59;3.70;;;1.60;;
14754;SDS011;7469;50.906;6.952;2023-02-28T03:58:32;3.30;;;1.37;;
14754;SDS011;7469;50.906;6.952;2023-02-28T04:01:07;2.47;;;1.48;;
14754;SDS011;7469;50.906;6.952;2023-02-28T04:03:38;2.17;;;1.33;;
14754;SDS011;7469;50.906;6.952;2023-02-28T04:06:07;1.55;;;1.10;;
14754;SDS011;7469;50.906;6.952;2023-02-28T04:08:43;1.65;;;1.55;;
14754;SDS011;7469;50.906;6.952;2023-02-28T04:11:14;4.32;;;1.92;;
14754;SDS011;7469;50.906;6.952;2023-02-28T04:13:47;1.92;;;1.40;;
14754;SDS011;7469;50.906;6.952;2023-02-28T04:16:15;1.55;;;1.30;;
14754;SDS011;7469;50.906;6.952;2023-02-28T04:19:00;2.10;;;1.33;;
14754;SDS011;7469;50.906;6.952;2023-02-28T04:21:32;3.33;;;1.48;;
14754;SDS011;7469;50.906;6.952;2023-02-28T04:24:02;1.95;;;1.50;;
14754;SDS011;7469;50.906;6.952;2023-02-28T04:26:31;1.50;;;1.40;;
14754;SDS011;7469;50.906;6.952;2023-02-28T04:29:01;2.17;;;1.38;;
14754;SDS011;7469;50.906;6.952;2023-02-28T04:31:31;1.77;;;1.40;;
14754;SDS011;7469;50.906;6.952;2023-02-28T04:33:59;2.63;;;1.30;;
14754;SDS011;7469;50.906;6.952;2023-02-28T04:36:27;1.15;;;1.13;;
14754;SDS011;7469;50.906;6.952;2023-02-28T04:38:55;2.40;;;1.75;;
14754;SDS011;7469;50.906;6.952;2023-02-28T04:41:25;3.25;;;1.70;;
14754;SDS011;7469;50.906;6.952;2023-02-28T04:43:57;2.37;;;1.50;;
14754;SDS011;7469;50.906;6.952;2023-02-28T04:46:25;2.80;;;1.52;;
14754;SDS011;7469;50.906;6.952;2023-02-28T04:48:53;3.13;;;1.75;;
14754;SDS011;7469;50.906;6.952;2023-02-28T04:51:21;2.75;;;1.60;;
14754;SDS011;7469;50.906;6.952;2023-02-28T04:53:49;2.25;;;1.52;;
14754;SDS011;7469;50.906;6.952;2023-02-28T04:56:17;2.80;;;1.50;;
14754;SDS011;7469;50.906;6.952;2023-02-28T04:58:47;2.08;;;1.50;;
14754;SDS011;7469;50.906;6.952;2023-02-28T05:01:17;1.70;;;1.52;;
14754;SDS011;7469;50.906;6.952;2023-02-28T05:03:47;2.25;;;1.60;;
14754;SDS011;7469;50.906;6.952;2023-02-28T05:06:16;2.03;;;1.70;;
14754;SDS011;7469;50.906;6.952;2023-02-28T05:08:46;4.30;;;1.77;;
14754;SDS011;7469;50.906;6.952;2023-02-28T05:11:16;2.63;;;1.98;;
14754;SDS011;7469;50.906;6.952;2023-02-28T05:13:46;2.47;;;1.45;;
14754;SDS011;7469;50.906;6.952;2023-02-28T05:16:15;2.97;;;1.50;;
14754;SDS011;7469;50.906;6.952;2023-02-28T05:18:43;2.03;;;1.35;;
14754;SDS011;7469;50.906;6.952;2023-02-28T05:21:22;1.52;;;1.40;;
14754;SDS011;7469;50.906;6.952;2023-02-28T05:23:53;2.72;;;1.73;;
14754;SDS011;7469;50.906;6.952;2023-02-28T05:26:22;2.75;;;1.60;;
14754;SDS011;7469;50.906;6.952;2023-02-28T05:28:52;2.90;;;1.33;;
14754;SDS011;7469;50.906;6.952;2023-02-28T05:31:21;2.22;;;1.70;;
14754;SDS011;7469;50.906;6.952;2023-02-28T05:33:50;1.70;;;1.60;;
14754;SDS011;7469;50.906;6.952;2023-02-28T05:36:18;2.40;;;1.60;;
14754;SDS011;7469;50.906;6.952;2023-02-28T05:38:46;2.00;;;1.75;;
14754;SDS011;7469;50.906;6.952;2023-02-28T05:41:15;7.90;;;1.52;;
14754;SDS011;7469;50.906;6.952;2023-02-28T05:43:45;2.10;;;1.70;;
14754;SDS011;7469;50.906;6.952;2023-02-28T05:46:15;2.42;;;1.80;;
14754;SDS011;7469;50.906;6.952;2023-02-28T05:48:45;2.97;;;1.90;;
14754;SDS011;7469;50.906;6.952;2023-02-28T05:51:14;5.25;;;1.70;;
14754;SDS011;7469;50.906;6.952;2023-02-28T05:53:43;3.20;;;1.80;;
14754;SDS011;7469;50.906;6.952;2023-02-28T05:56:11;2.95;;;1.50;;
14754;SDS011;7469;50.906;6.952;2023-02-28T05:58:39;1.67;;;1.40;;
14754;SDS011;7469;50.906;6.952;2023-02-28T06:01:22;1.70;;;1.48;;
14754;SDS011;7469;50.906;6.952;2023-02-28T06:03:52;2.10;;;1.70;;
14754;SDS011;7469;50.906;6.952;2023-02-28T06:06:20;2.35;;;1.85;;
14754;SDS011;7469;50.906;6.952;2023-02-28T06:08:48;2.65;;;1.80;;
14754;SDS011;7469;50.906;6.952;2023-02-28T06:11:16;5.07;;;1.75;;
14754;SDS011;7469;50.906;6.952;2023-02-28T06:13:46;1.95;;;1.45;;
14754;SDS011;7469;50.906;6.952;2023-02-28T06:16:13;2.10;;;1.77;;
14754;SDS011;7469;50.906;6.952;2023-02-28T06:18:43;1.40;;;1.30;;
14754;SDS011;7469;50.906;6.952;2023-02-28T06:21:13;2.20;;;1.45;;
14754;SDS011;7469;50.906;6.952;2023-02-28T06:23:41;5.22;;;1.85;;
14754;SDS011;7469;50.906;6.952;2023-02-28T06:26:08;2.28;;;1.58;;
14754;SDS011;7469;50.906;6.952;2023-02-28T06:28:37;2.95;;;1.73;;
14754;SDS011;7469;50.906;6.952;2023-02-28T06:31:06;5.82;;;1.55;;
14754;SDS011;7469;50.906;6.952;2023-02-28T06:33:35;3.05;;;1.48;;
14754;SDS011;7469;50.906;6.952;2023-02-28T06:36:05;3.05;;;2.20;;
14754;SDS011;7469;50.906;6.952;2023-02-28T06:38:34;1.67;;;1.57;;
14754;SDS011;7469;50.906;6.952;2023-02-28T06:41:03;5.53;;;1.63;;
14754;SDS011;7469;50.906;6.952;2023-02-28T06:43:33;1.70;;;1.60;;
14754;SDS011;7469;50.906;6.952;2023-02-28T06:46:04;3.55;;;1.70;;
14754;SDS011;7469;50.906;6.952;2023-02-28T06:48:33;2.97;;;1.77;;
14754;SDS011;7469;50.906;6.952;2023-02-28T06:51:05;4.43;;;1.95;;
14754;SDS011;7469;50.906;6.952;2023-02-28T06:53:34;4.18;;;1.85;;
14754;SDS011;7469;50.906;6.952;2023-02-28T06:56:03;1.88;;;1.70;;
14754;SDS011;7469;50.906;6.952;2023-02-28T06:58:33;4.63;;;1.55;;
14754;SDS011;7469;50.906;6.952;2023-02-28T07:01:01;3.63;;;1.90;;
14754;SDS011;7469;50.906;6.952;2023-02-28T07:03:29;3.13;;;1.98;;
14754;SDS011;7469;50.906;6.952;2023-02-28T07:06:00;2.67;;;1.75;;
14754;SDS011;7469;50.906;6.952;2023-02-28T07:08:30;3.53;;;2.08;;
14754;SDS011;7469;50.906;6.952;2023-02-28T07:10:59;2.77;;;1.77;;
14754;SDS011;7469;50.906;6.952;2023-02-28T07:13:27;3.03;;;2.00;;
14754;SDS011;7469;50.906;6.952;2023-02-28T07:15:55;2.60;;;1.90;;
14754;SDS011;7469;50.906;6.952;2023-02-28T07:18:24;2.42;;;1.77;;
14754;SDS011;7469;50.906;6.952;2023-02-28T07:20:52;2.77;;;1.77;;
14754;SDS011;7469;50.906;6.952;2023-02-28T07:23:20;4.00;;;1.70;;
14754;SDS011;7469;50.906;6.952;2023-02-28T07:25:50;3.20;;;1.63;;
14754;SDS011;7469;50.906;6.952;2023-02-28T07:28:19;2.47;;;1.90;;
14754;SDS011;7469;50.906;6.952;2023-02-28T07:30:47;2.22;;;1.77;;
14754;SDS011;7469;50.906;6.952;2023-02-28T07:33:15;3.03;;;1.90;;
14754;SDS011;7469;50.906;6.952;2023-02-28T07:35:43;4.05;;;1.95;;
14754;SDS011;7469;50.906;6.952;2023-02-28T07:38:11;3.37;;;1.83;;
14754;SDS011;7469;50.906;6.952;2023-02-28T07:40:39;8.63;;;2.47;;
14754;SDS011;7469;50.906;6.952;2023-02-28T07:43:09;2.88;;;2.00;;
14754;SDS011;7469;50.906;6.952;2023-02-28T07:45:36;2.60;;;1.77;;
14754;SDS011;7469;50.906;6.952;2023-02-28T07:48:05;4.30;;;1.90;;
14754;SDS011;7469;50.906;6.952;2023-02-28T07:50:32;2.30;;;1.77;;
14754;SDS011;7469;50.906;6.952;2023-02-28T07:53:01;2.57;;;1.83;;
14754;SDS011;7469;50.906;6.952;2023-02-28T07:55:29;1.90;;;1.70;;
14754;SDS011;7469;50.906;6.952;2023-02-28T07:57:57;2.47;;;1.80;;
14754;SDS011;7469;50.906;6.952;2023-02-28T08:00:27;2.00;;;1.67;;
14754;SDS011;7469;50.906;6.952;2023-02-28T08:02:55;3.33;;;2.03;;
14754;SDS011;7469;50.906;6.952;2023-02-28T08:05:24;4.47;;;1.67;;
14754;SDS011;7469;50.906;6.952;2023-02-28T08:07:52;2.25;;;1.45;;
14754;SDS011;7469;50.906;6.952;2023-02-28T08:10:21;3.33;;;1.60;;
14754;SDS011;7469;50.906;6.952;2023-02-28T08:12:48;2.20;;;1.87;;
14754;SDS011;7469;50.906;6.952;2023-02-28T08:15:18;3.40;;;1.93;;
14754;SDS011;7469;50.906;6.952;2023-02-28T08:17:47;1.40;;;1.30;;
14754;SDS011;7469;50.906;6.952;2023-02-28T08:20:15;4.23;;;1.70;;
14754;SDS011;7469;50.906;6.952;2023-02-28T08:22:43;1.97;;;1.77;;
14754;SDS011;7469;50.906;6.952;2023-02-28T08:25:11;1.57;;;1.47;;
14754;SDS011;7469;50.906;6.952;2023-02-28T08:27:39;1.50;;;1.40;;
14754;SDS011;7469;50.906;6.952;2023-02-28T08:30:08;1.83;;;1.63;;
14754;SDS011;7469;50.906;6.952;2023-02-28T08:32:37;1.57;;;1.47;;
14754;SDS011;7469;50.906;6.952;2023-02-28T08:35:08;5.00;;;1.63;;
14754;SDS011;7469;50.906;6.952;2023-02-28T08:37:36;1.53;;;1.10;;
14754;SDS011;7469;50.906;6.952;2023-02-28T08:40:05;2.60;;;1.43;;
14754;SDS011;7469;50.906;6.952;2023-02-28T08:42:34;2.47;;;1.50;;
14754;SDS011;7469;50.906;6.952;2023-02-28T08:45:02;1.43;;;1.33;;
14754;SDS011;7469;50.906;6.952;2023-02-28T08:47:31;1.53;;;1.43;;
14754;SDS011;7469;50.906;6.952;2023-02-28T08:49:59;2.20;;;1.40;;
14754;SDS011;7469;50.906;6.952;2023-02-28T08:52:28;3.17;;;1.33;;
14754;SDS011;7469;50.906;6.952;2023-02-28T08:54:56;2.60;;;1.63;;
14754;SDS011;7469;50.906;6.952;2023-02-28T08:57:24;6.57;;;1.73;;
14754;SDS011;7469;50.906;6.952;2023-02-28T08:59:53;1.83;;;1.20;;
14754;SDS011;7469;50.906;6.952;2023-02-28T09:02:21;1.67;;;1.30;;
14754;SDS011;7469;50.906;6.952;2023-02-28T09:04:49;1.40;;;1.30;;
14754;SDS011;7469;50.906;6.952;2023-02-28T09:07:17;2.47;;;1.30;;
14754;SDS011;7469;50.906;6.952;2023-02-28T09:09:47;1.10;;;1.00;;
14754;SDS011;7469;50.906;6.952;2023-02-28T09:12:24;1.00;;;1.00;;
14754;SDS011;7469;50.906;6.952;2023-02-28T09:14:53;1.87;;;1.40;;
14754;SDS011;7469;50.906;6.952;2023-02-28T09:17:21;2.20;;;0.97;;
14754;SDS011;7469;50.906;6.952;2023-02-28T09:19:55;1.30;;;1.20;;
14754;SDS011;7469;50.906;6.952;2023-02-28T09:22:24;1.47;;;1.20;;
14754;SDS011;7469;50.906;6.952;2023-02-28T09:24:53;1.20;;;1.10;;
14754;SDS011;7469;50.906;6.952;2023-02-28T09:27:21;2.40;;;1.50;;
14754;SDS011;7469;50.906;6.952;2023-02-28T09:29:49;2.07;;;1.50;;
14754;SDS011;7469;50.906;6.952;2023-02-28T09:32:17;1.90;;;1.50;;
14754;SDS011;7469;50.906;6.952;2023-02-28T09:34:45;2.07;;;1.30;;
14754;SDS011;7469;50.906;6.952;2023-02-28T09:37:13;1.87;;;1.30;;
14754;SDS011;7469;50.906;6.952;2023-02-28T09:39:41;1.77;;;1.43;;
14754;SDS011;7469;50.906;6.952;2023-02-28T09:42:13;1.70;;;1.20;;
14754;SDS011;7469;50.906;6.952;2023-02-28T09:44:50;3.73;;;1.10;;
14754;SDS011;7469;50.906;6.952;2023-02-28T09:47:21;2.50;;;1.20;;
14754;SDS011;7469;50.906;6.952;2023-02-28T09:49:54;1.43;;;1.33;;
14754;SDS011;7469;50.906;6.952;2023-02-28T09:52:27;3.63;;;1.10;;
14754;SDS011;7469;50.906;6.952;2023-02-28T09:54:59;2.33;;;1.10;;
14754;SDS011;7469;50.906;6.952;2023-02-28T09:57:32;1.40;;;1.30;;
14754;SDS011;7469;50.906;6.952;2023-02-28T10:00:07;1.30;;;1.20;;
14754;SDS011;7469;50.906;6.952;2023-02-28T10:03:00;5.07;;;1.27;;
14754;SDS011;7469;50.906;6.952;2023-02-28T10:05:37;1.33;;;1.23;;
14754;SDS011;7469;50.906;6.952;2023-02-28T10:08:11;1.63;;;1.33;;
14754;SDS011;7469;50.906;6.952;2023-02-28T10:10:43;1.93;;;1.30;;
14754;SDS011;7469;50.906;6.952;2023-02-28T10:13:17;2.73;;;1.83;;
14754;SDS011;7469;50.906;6.952;2023-02-28T10:15:50;1.80;;;1.33;;
14754;SDS011;7469;50.906;6.952;2023-02-28T10:18:23;1.87;;;1.53;;
14754;SDS011;7469;50.906;6.952;2023-02-28T10:20:54;3.93;;;1.10;;
14754;SDS011;7469;50.906;6.952;2023-02-28T10:23:24;1.30;;;1.20;;
14754;SDS011;7469;50.906;6.952;2023-02-28T10:25:57;1.27;;;1.10;;
14754;SDS011;7469;50.906;6.952;2023-02-28T10:28:30;2.77;;;1.50;;
14754;SDS011;7469;50.906;6.952;2023-02-28T10:30:58;3.43;;;1.83;;
14754;SDS011;7469;50.906;6.952;2023-02-28T10:33:28;2.00;;;1.30;;
14754;SDS011;7469;50.906;6.952;2023-02-28T10:35:58;1.40;;;1.30;;
14754;SDS011;7469;50.906;6.952;2023-02-28T10:38:27;2.20;;;1.37;;
14754;SDS011;7469;50.906;6.952;2023-02-28T10:41:06;1.30;;;1.20;;
14754;SDS011;7469;50.906;6.952;2023-02-28T10:43:37;1.37;;;1.10;;
14754;SDS011;7469;50.906;6.952;2023-02-28T10:46:10;2.70;;;1.40;;
14754;SDS011;7469;50.906;6.952;2023-02-28T10:49:00;1.80;;;1.10;;
14754;SDS011;7469;50.906;6.952;2023-02-28T10:51:34;1.23;;;1.17;;
14754;SDS011;7469;50.906;6.952;2023-02-28T10:54:05;1.10;;;1.10;;
14754;SDS011;7469;50.906;6.952;2023-02-28T10:56:33;1.90;;;1.40;;
14754;SDS011;7469;50.906;6.952;2023-02-28T10:59:03;1.30;;;1.20;;
14754;SDS011;7469;50.906;6.952;2023-02-28T11:01:54;1.20;;;1.10;;
14754;SDS011;7469;50.906;6.952;2023-02-28T11:04:32;2.23;;;1.30;;
14754;SDS011;7469;50.906;6.952;2023-02-28T11:07:05;1.53;;;1.27;;
14754;SDS011;7469;50.906;6.952;2023-02-28T11:09:34;3.27;;;1.50;;
14754;SDS011;7469;50.906;6.952;2023-02-28T11:12:05;1.57;;;1.33;;
14754;SDS011;7469;50.906;6.952;2023-02-28T11:14:39;1.30;;;1.20;;
14754;SDS011;7469;50.906;6.952;2023-02-28T11:17:18;1.33;;;1.20;;
14754;SDS011;7469;50.906;6.952;2023-02-28T11:19:50;2.20;;;1.53;;
14754;SDS011;7469;50.906;6.952;2023-02-28T11:22:23;2.10;;;1.43;;
14754;SDS011;7469;50.906;6.952;2023-02-28T11:24:55;1.60;;;1.27;;
14754;SDS011;7469;50.906;6.952;2023-02-28T11:27:42;1.40;;;1.30;;
14754;SDS011;7469;50.906;6.952;2023-02-28T11:32:55;1.90;;;1.27;;
14754;SDS011;7469;50.906;6.952;2023-02-28T11:35:24;2.00;;;1.40;;
14754;SDS011;7469;50.906;6.952;2023-02-28T11:37:55;1.30;;;1.20;;
14754;SDS011;7469;50.906;6.952;2023-02-28T11:40:28;2.37;;;1.40;;
14754;SDS011;7469;50.906;6.952;2023-02-28T11:43:06;2.63;;;1.40;;
14754;SDS011;7469;50.906;6.952;2023-02-28T11:45:48;1.30;;;1.20;;
14754;SDS011;7469;50.906;6.952;2023-02-28T11:48:32;1.43;;;1.20;;
14754;SDS011;7469;50.906;6.952;2023-02-28T11:51:12;1.50;;;1.40;;
14754;SDS011;7469;50.906;6.952;2023-02-28T11:53:50;1.67;;;1.27;;
14754;SDS011;7469;50.906;6.952;2023-02-28T11:56:43;1.23;;;1.13;;
14754;SDS011;7469;50.906;6.952;2023-02-28T11:59:22;3.20;;;1.40;;
14754;SDS011;7469;50.906;6.952;2023-02-28T12:02:19;2.20;;;1.27;;
14754;SDS011;7469;50.906;6.952;2023-02-28T12:05:00;2.13;;;1.47;;
14754;SDS011;7469;50.906;6.952;2023-02-28T12:07:50;2.00;;;1.50;;
14754;SDS011;7469;50.906;6.952;2023-02-28T12:10:29;2.47;;;1.50;;
14754;SDS011;7469;50.906;6.952;2023-02-28T12:13:05;1.70;;;1.40;;
14754;SDS011;7469;50.906;6.952;2023-02-28T12:15:43;1.53;;;1.43;;
14754;SDS011;7469;50.906;6.952;2023-02-28T12:21:26;1.77;;;1.40;;
14754;SDS011;7469;50.906;6.952;2023-02-28T12:27:05;3.17;;;1.70;;
14754;SDS011;7469;50.906;6.952;2023-02-28T12:29:39;1.10;;;1.10;;
14754;SDS011;7469;50.906;6.952;2023-02-28T12:32:16;2.17;;;1.50;;
14754;SDS011;7469;50.906;6.952;2023-02-28T12:34:51;2.50;;;1.53;;
14754;SDS011;7469;50.906;6.952;2023-02-28T12:37:24;2.80;;;1.40;;
14754;SDS011;7469;50.906;6.952;2023-02-28T12:40:00;1.70;;;1.60;;
14754;SDS011;7469;50.906;6.952;2023-02-28T12:42:32;3.10;;;1.50;;
14754;SDS011;7469;50.906;6.952;2023-02-28T12:45:05;1.60;;;1.40;;
14754;SDS011;7469;50.906;6.952;2023-02-28T12:47:38;1.70;;;1.37;;
14754;SDS011;7469;50.906;6.952;2023-02-28T12:50:11;1.43;;;1.30;;
14754;SDS011;7469;50.906;6.952;2023-02-28T12:52:40;3.77;;;1.60;;
14754;SDS011;7469;50.906;6.952;2023-02-28T12:55:15;2.50;;;1.60;;
14754;SDS011;7469;50.906;6.952;2023-02-28T12:57:51;2.07;;;1.87;;
14754;SDS011;7469;50.906;6.952;2023-02-28T13:00:28;2.53;;;1.70;;
14754;SDS011;7469;50.906;6.952;2023-02-28T13:03:08;2.60;;;2.23;;
14754;SDS011;7469;50.906;6.952;2023-02-28T13:06:03;1.83;;;1.60;;
14754;SDS011;7469;50.906;6.952;2023-02-28T13:08:43;2.50;;;1.80;;
14754;SDS011;7469;50.906;6.952;2023-02-28T13:11:24;2.27;;;1.63;;
14754;SDS011;7469;50.906;6.952;2023-02-28T13:13:58;2.20;;;1.87;;
14754;SDS011;7469;50.906;6.952;2023-02-28T13:19:30;1.80;;;1.70;;
14754;SDS011;7469;50.906;6.952;2023-02-28T13:22:02;2.03;;;1.80;;
14754;SDS011;7469;50.906;6.952;2023-02-28T13:24:39;4.17;;;1.90;;
14754;SDS011;7469;50.906;6.952;2023-02-28T13:30:00;2.10;;;1.80;;
14754;SDS011;7469;50.906;6.952;2023-02-28T13:32:33;2.17;;;1.83;;
14754;SDS011;7469;50.906;6.952;2023-02-28T13:35:15;3.00;;;1.60;;
14754;SDS011;7469;50.906;6.952;2023-02-28T13:38:15;2.13;;;1.80;;
14754;SDS011;7469;50.906;6.952;2023-02-28T13:40:51;3.10;;;1.80;;
14754;SDS011;7469;50.906;6.952;2023-02-28T13:43:19;3.43;;;1.70;;
14754;SDS011;7469;50.906;6.952;2023-02-28T13:46:08;3.70;;;2.00;;
14754;SDS011;7469;50.906;6.952;2023-02-28T13:48:41;2.43;;;1.73;;
14754;SDS011;7469;50.906;6.952;2023-02-28T13:57:04;2.53;;;2.00;;
14754;SDS011;7469;50.906;6.952;2023-02-28T13:59:47;3.83;;;1.97;;
14754;SDS011;7469;50.906;6.952;2023-02-28T14:02:34;1.77;;;1.67;;
14754;SDS011;7469;50.906;6.952;2023-02-28T14:05:16;3.23;;;2.00;;
14754;SDS011;7469;50.906;6.952;2023-02-28T14:07:48;2.50;;;1.73;;
14754;SDS011;7469;50.906;6.952;2023-02-28T14:10:26;2.00;;;1.63;;
14754;SDS011;7469;50.906;6.952;2023-02-28T14:12:58;2.87;;;1.93;;
14754;SDS011;7469;50.906;6.952;2023-02-28T14:18:21;2.23;;;2.03;;
14754;SDS011;7469;50.906;6.952;2023-02-28T14:20:54;2.33;;;1.90;;
14754;SDS011;7469;50.906;6.952;2023-02-28T14:23:30;2.07;;;1.80;;
14754;SDS011;7469;50.906;6.952;2023-02-28T14:26:10;2.80;;;1.90;;
14754;SDS011;7469;50.906;6.952;2023-02-28T14:28:52;4.30;;;2.10;;
14754;SDS011;7469;50.906;6.952;2023-02-28T14:31:43;2.70;;;2.07;;
14754;SDS011;7469;50.906;6.952;2023-02-28T14:34:20;2.57;;;1.80;;
14754;SDS011;7469;50.906;6.952;2023-02-28T14:37:09;1.80;;;1.70;;
14754;SDS011;7469;50.906;6.952;2023-02-28T14:39:42;2.67;;;2.27;;
14754;SDS011;7469;50.906;6.952;2023-02-28T14:42:32;2.40;;;2.20;;
14754;SDS011;7469;50.906;6.952;2023-02-28T14:45:01;3.97;;;2.47;;
14754;SDS011;7469;50.906;6.952;2023-02-28T14:47:31;3.73;;;2.27;;
14754;SDS011;7469;50.906;6.952;2023-02-28T14:50:01;3.40;;;2.00;;
14754;SDS011;7469;50.906;6.952;2023-02-28T14:52:31;3.03;;;2.00;;
14754;SDS011;7469;50.906;6.952;2023-02-28T14:55:00;1.97;;;1.83;;
14754;SDS011;7469;50.906;6.952;2023-02-28T14:57:34;2.13;;;1.93;;
14754;SDS011;7469;50.906;6.952;2023-02-28T15:00:10;3.10;;;2.10;;
14754;SDS011;7469;50.906;6.952;2023-02-28T15:02:41;3.50;;;1.97;;
14754;SDS011;7469;50.906;6.952;2023-02-28T15:05:16;5.50;;;2.30;;
14754;SDS011;7469;50.906;6.952;2023-02-28T15:08:00;2.07;;;1.87;;
14754;SDS011;7469;50.906;6.952;2023-02-28T15:10:30;2.70;;;2.20;;
14754;SDS011;7469;50.906;6.952;2023-02-28T15:13:00;2.97;;;2.20;;
14754;SDS011;7469;50.906;6.952;2023-02-28T15:15:35;3.20;;;1.90;;
14754;SDS011;7469;50.906;6.952;2023-02-28T15:18:30;2.97;;;1.90;;
14754;SDS011;7469;50.906;6.952;2023-02-28T15:21:03;3.30;;;2.10;;
14754;SDS011;7469;50.906;6.952;2023-02-28T15:23:34;4.43;;;2.17;;
14754;SDS011;7469;50.906;6.952;2023-02-28T15:26:04;2.10;;;1.90;;
14754;SDS011;7469;50.906;6.952;2023-02-28T15:28:35;2.40;;;1.90;;
14754;SDS011;7469;50.906;6.952;2023-02-28T15:31:03;7.57;;;2.07;;
14754;SDS011;7469;50.906;6.952;2023-02-28T15:33:52;4.27;;;2.10;;
14754;SDS011;7469;50.906;6.952;2023-02-28T15:36:23;2.07;;;1.77;;
14754;SDS011;7469;50.906;6.952;2023-02-28T15:38:54;2.67;;;2.00;;
14754;SDS011;7469;50.906;6.952;2023-02-28T15:41:36;2.53;;;1.90;;
14754;SDS011;7469;50.906;6.952;2023-02-28T15:44:16;3.47;;;2.10;;
14754;SDS011;7469;50.906;6.952;2023-02-28T15:46:54;5.10;;;2.30;;
14754;SDS011;7469;50.906;6.952;2023-02-28T15:49:25;3.23;;;1.90;;
14754;SDS011;7469;50.906;6.952;2023-02-28T15:51:53;2.97;;;2.00;;
14754;SDS011;7469;50.906;6.952;2023-02-28T15:54:27;2.67;;;2.00;;
14754;SDS011;7469;50.906;6.952;2023-02-28T15:56:57;3.40;;;2.10;;
14754;SDS011;7469;50.906;6.952;2023-02-28T15:59:29;2.30;;;2.10;;
14754;SDS011;7469;50.906;6.952;2023-02-28T16:02:12;2.90;;;1.80;;